createdAt,value
2017-03-26T05:37:13.921Z,63.54
2017-03-26T05:37:54.486Z,62.87
2017-03-26T05:38:35.067Z,62.87
2017-03-26T05:39:15.648Z,61.05
2017-03-26T05:39:56.226Z,62.39
2017-03-26T05:40:36.806Z,60.08
2017-03-26T05:41:17.367Z,58.45
2017-03-26T05:41:57.946Z,55.57
2017-03-26T05:42:38.520Z,55.67
2017-03-26T05:43:19.098Z,56.05
2017-03-26T05:43:59.685Z,55
2017-03-26T05:50:46.230Z,50.87
2017-03-26T05:51:26.808Z,48.64
2017-03-26T05:52:07.390Z,48.93
2017-03-26T05:52:47.945Z,48.54
2017-03-26T05:53:28.514Z,45.76
2017-03-26T05:54:09.090Z,45.95
2017-03-26T05:54:49.673Z,44.8
2017-03-26T05:55:30.224Z,45.67
2017-03-26T05:56:10.804Z,44.42
2017-03-26T05:56:51.388Z,45.09
2017-03-26T05:57:31.965Z,47.39
2017-03-26T05:58:12.553Z,48.25
2017-03-26T05:58:53.128Z,47.56
2017-03-26T05:59:33.701Z,48.25
2017-03-26T06:00:14.293Z,47.01
2017-03-26T06:00:54.873Z,47.77
2017-03-26T06:01:35.445Z,48.64
2017-03-26T06:02:16.029Z,49.6
2017-03-26T06:02:56.608Z,49.79
2017-03-26T06:03:37.187Z,48.54
2017-03-26T06:04:17.766Z,48.25
2017-03-26T06:04:58.348Z,47.1
2017-03-26T06:05:38.934Z,47.39
2017-03-26T06:06:19.511Z,46.62
2017-03-26T06:07:00.094Z,45
2017-03-26T06:07:40.658Z,43.65
2017-03-26T06:08:21.231Z,43.36
2017-03-26T06:11:00.059Z,43.65
2017-03-26T06:11:40.634Z,42.61
2017-03-26T06:12:21.207Z,41.56
2017-03-26T06:13:01.791Z,40.31
2017-03-26T06:13:42.376Z,39.54
2017-03-26T06:14:22.952Z,39.93
2017-03-26T06:15:03.521Z,39.93
2017-03-26T06:15:44.099Z,39.73
2017-03-26T06:16:24.670Z,39.73
2017-03-26T06:17:05.235Z,39.83
2017-03-26T06:17:45.804Z,39.35
2017-03-26T06:18:26.423Z,38.96
2017-03-26T06:19:06.960Z,37.82
2017-03-26T06:19:47.537Z,38.29
2017-03-26T06:20:28.115Z,37.53
2017-03-26T06:21:08.673Z,37.53
2017-03-26T06:21:49.254Z,37.43
2017-03-26T06:22:29.837Z,37.43
2017-03-26T06:23:10.417Z,37.64
2017-03-26T06:23:51.157Z,37.84
2017-03-26T06:24:31.747Z,37.43
2017-03-26T06:25:12.320Z,37.16
2017-03-26T06:25:52.898Z,36.49
2017-03-26T06:26:33.480Z,35.72
2017-03-26T06:27:14.054Z,35.24
2017-03-26T06:27:54.637Z,37.07
2017-03-26T06:28:35.219Z,38.02
2017-03-26T06:29:15.796Z,37.84
2017-03-26T06:29:56.376Z,37.45
2017-03-26T06:30:36.961Z,37.93
2017-03-26T06:31:17.536Z,37.57
2017-03-26T06:31:58.120Z,36.6
2017-03-26T06:32:38.695Z,36.51
2017-03-26T06:33:19.270Z,35.47
2017-03-26T06:33:59.857Z,35.95
2017-03-26T06:34:40.438Z,35.1
2017-03-26T06:35:21.017Z,32.81
2017-03-26T06:36:01.600Z,31.96
2017-03-26T06:36:42.179Z,30.05
2017-03-26T06:37:22.759Z,29.87
2017-03-26T06:38:03.330Z,29.5
2017-03-26T06:38:43.918Z,28.07
2017-03-26T06:39:24.500Z,27.22
2017-03-26T06:40:05.078Z,25.68
2017-03-26T06:40:45.764Z,25.21
2017-03-26T06:41:26.320Z,25.12
2017-03-26T06:42:07.044Z,24.26
2017-03-26T06:42:47.774Z,24.37
2017-03-26T06:43:28.624Z,23.9
2017-03-26T06:44:09.354Z,23.7
2017-03-26T06:44:50.167Z,22.65
2017-03-26T06:45:30.803Z,22.27
2017-03-26T06:46:11.524Z,22.17
2017-03-26T06:46:52.388Z,21.8
2017-03-26T06:47:33.419Z,21.31
2017-03-26T06:48:14.191Z,21.51
2017-03-26T06:48:55.048Z,21.03
2017-03-26T06:49:35.968Z,20.95
2017-03-26T06:50:16.986Z,20.47
2017-03-26T06:50:57.738Z,19.4
2017-03-26T06:51:38.537Z,19.9
2017-03-26T06:52:19.420Z,18.83
2017-03-26T06:52:59.995Z,18.65
2017-03-26T06:53:40.669Z,18.27
2017-03-26T06:54:21.363Z,17.68
2017-03-26T06:55:01.955Z,17.89
2017-03-26T06:55:42.732Z,17.79
2017-03-26T06:56:23.310Z,18.57
2017-03-26T06:57:03.885Z,19.25
2017-03-26T06:57:44.470Z,19.06
2017-03-26T06:58:25.048Z,18.96
2017-03-26T06:59:05.883Z,17.9
2017-03-26T06:59:46.845Z,18.09
2017-03-26T07:00:27.432Z,18.38
2017-03-26T07:01:08.012Z,17.7
2017-03-26T07:01:48.707Z,17.9
2017-03-26T07:02:29.455Z,17.5
2017-03-26T07:03:10.045Z,18.09
2017-03-26T07:03:50.624Z,17.9
2017-03-26T07:04:31.204Z,17.61
2017-03-26T07:05:11.792Z,17.42
2017-03-26T07:05:52.608Z,17.52
2017-03-26T07:06:33.727Z,17.62
2017-03-26T07:07:14.302Z,17.03
2017-03-26T07:07:55.156Z,17.52
2017-03-26T07:08:35.738Z,17.14
2017-03-26T07:09:16.314Z,16.85
2017-03-26T07:09:57.020Z,16.66
2017-03-26T07:10:37.600Z,16.76
2017-03-26T07:11:18.563Z,16.66
2017-03-26T07:11:59.310Z,15.99
2017-03-26T07:12:39.892Z,15.89
2017-03-26T07:13:20.476Z,16.28
2017-03-26T07:14:01.408Z,15.8
2017-03-26T07:14:41.997Z,16
2017-03-26T07:15:22.711Z,15.22
2017-03-26T07:16:03.622Z,16
2017-03-26T07:16:44.285Z,15.9
2017-03-26T07:17:24.863Z,15.9
2017-03-26T07:18:05.598Z,15.51
2017-03-26T07:18:46.181Z,15.8
2017-03-26T07:19:26.764Z,15.7
2017-03-26T07:20:07.350Z,15.8
2017-03-26T07:20:48.134Z,15.9
2017-03-26T07:21:28.781Z,16.29
2017-03-26T07:22:09.606Z,15.02
2017-03-26T07:22:50.288Z,15.8
2017-03-26T07:23:31.172Z,15.31
2017-03-26T07:24:11.741Z,15.12
2017-03-26T07:24:52.480Z,15.22
2017-03-26T07:25:33.285Z,14.54
2017-03-26T07:26:13.855Z,14.45
2017-03-26T07:26:54.581Z,14.36
2017-03-26T07:27:35.167Z,14.55
2017-03-26T07:28:16.533Z,14.45
2017-03-26T07:28:57.119Z,14.46
2017-03-26T07:29:37.956Z,13.48
2017-03-26T07:30:18.657Z,13.49
2017-03-26T07:30:59.430Z,13.3
2017-03-26T07:31:40.307Z,12.81
2017-03-26T07:32:20.913Z,12.42
2017-03-26T07:33:01.511Z,13.12
2017-03-26T07:33:42.507Z,13.02
2017-03-26T07:34:23.083Z,12.73
2017-03-26T07:35:03.659Z,12.23
2017-03-26T07:35:44.246Z,12.73
2017-03-26T07:36:24.812Z,12.82
2017-03-26T07:37:05.405Z,12.73
2017-03-26T07:37:45.988Z,11.85
2017-03-26T07:38:26.765Z,11.65
2017-03-26T07:39:07.824Z,12.14
2017-03-26T07:39:48.467Z,12.63
2017-03-26T07:40:29.397Z,11.75
2017-03-26T07:41:10.387Z,11.85
2017-03-26T07:41:51.157Z,11.75
2017-03-26T07:42:31.775Z,11.75
2017-03-26T07:43:12.375Z,11.76
2017-03-26T07:43:53.112Z,11.56
2017-03-26T07:44:33.675Z,11.66
2017-03-26T07:45:14.250Z,12.24
2017-03-26T07:45:54.827Z,11.18
2017-03-26T07:46:35.412Z,10.98
2017-03-26T07:47:15.992Z,10.98
2017-03-26T07:47:56.692Z,10.78
2017-03-26T07:48:37.392Z,10.98
2017-03-26T07:49:18.242Z,10.49
2017-03-26T07:49:59.143Z,10.59
2017-03-26T07:50:39.803Z,10.6
2017-03-26T07:51:20.380Z,10.5
2017-03-26T07:52:00.976Z,10.99
2017-03-26T07:52:41.554Z,10.49
2017-03-26T07:53:22.136Z,10.69
2017-03-26T07:54:02.725Z,11.08
2017-03-26T07:54:43.300Z,10.39
2017-03-26T07:55:24.668Z,10
2017-03-26T07:56:05.722Z,9.81
2017-03-26T07:56:46.098Z,10.79
2017-03-26T07:57:26.796Z,10.6
2017-03-26T07:58:07.374Z,10.69
2017-03-26T07:58:48.088Z,10.41
2017-03-26T07:59:28.672Z,10.41
2017-03-26T08:00:09.254Z,9.53
2017-03-26T08:00:49.837Z,10.02
2017-03-26T08:01:30.417Z,10.21
2017-03-26T08:02:11.004Z,9.92
2017-03-26T08:02:51.579Z,10.21
2017-03-26T08:03:32.164Z,10.81
2017-03-26T08:04:12.732Z,10.02
2017-03-26T08:04:53.314Z,9.73
2017-03-26T08:05:33.900Z,9.53
2017-03-26T08:06:14.480Z,8.84
2017-03-26T08:06:55.064Z,8.45
2017-03-26T08:07:35.642Z,8.84
2017-03-26T08:08:16.219Z,9.23
2017-03-26T08:08:56.800Z,8.55
2017-03-26T08:09:37.393Z,8.75
2017-03-26T08:10:17.958Z,8.45
2017-03-26T08:10:58.551Z,9.04
2017-03-26T08:11:39.137Z,9.04
2017-03-26T08:12:19.721Z,9.04
2017-03-26T08:13:00.465Z,9.04
2017-03-26T08:13:41.042Z,9.43
2017-03-26T08:14:21.620Z,9.14
2017-03-26T08:15:02.206Z,9.14
2017-03-26T08:15:42.796Z,8.26
2017-03-26T08:16:23.373Z,8.95
2017-03-26T08:17:03.947Z,8.26
2017-03-26T08:17:44.534Z,8.95
2017-03-26T08:18:25.111Z,8.85
2017-03-26T08:19:05.692Z,8.56
2017-03-26T08:19:46.264Z,8.16
2017-03-26T08:20:26.849Z,8.46
2017-03-26T08:21:07.423Z,8.56
2017-03-26T08:21:48.008Z,8.56
2017-03-26T08:22:28.578Z,8.66
2017-03-26T08:23:09.374Z,8.47
2017-03-26T08:23:50.508Z,8.37
2017-03-26T08:24:31.093Z,7.87
2017-03-26T08:25:11.666Z,7.87
2017-03-26T08:25:52.245Z,7.09
2017-03-26T08:26:32.825Z,7.68
2017-03-26T08:27:13.400Z,8.17
2017-03-26T08:27:53.983Z,7.78
2017-03-26T08:28:34.565Z,8.07
2017-03-26T08:29:15.137Z,7.77
2017-03-26T08:29:55.717Z,7.97
2017-03-26T08:30:36.296Z,8.26
2017-03-26T08:31:16.883Z,8.46
2017-03-26T08:31:57.466Z,7.97
2017-03-26T08:32:38.052Z,8.06
2017-03-26T08:33:18.630Z,8.36
2017-03-26T08:33:59.218Z,8.26
2017-03-26T08:34:39.808Z,7.67
2017-03-26T08:35:20.411Z,7.47
2017-03-26T08:36:01.000Z,8.46
2017-03-26T08:36:41.584Z,7.77
2017-03-26T08:37:22.165Z,8.26
2017-03-26T08:38:02.745Z,8.36
2017-03-26T08:38:43.336Z,8.26
2017-03-26T08:39:23.918Z,7.97
2017-03-26T08:40:04.501Z,7.97
2017-03-26T08:40:45.090Z,7.87
2017-03-26T08:41:25.663Z,8.46
2017-03-26T08:42:06.249Z,7.87
2017-03-26T08:42:46.829Z,8.26
2017-03-26T08:43:27.409Z,7.87
2017-03-26T08:44:07.977Z,7.97
2017-03-26T08:44:48.561Z,7.87
2017-03-26T08:45:29.142Z,8.36
2017-03-26T08:46:09.731Z,7.67
2017-03-26T08:46:50.309Z,7.28
2017-03-26T08:47:30.902Z,7.18
2017-03-26T08:48:11.479Z,7.77
2017-03-26T08:48:52.062Z,7.57
2017-03-26T08:49:32.646Z,8.16
2017-03-26T08:50:13.232Z,7.77
2017-03-26T08:50:53.796Z,7.47
2017-03-26T08:51:34.380Z,7.76
2017-03-26T08:52:14.965Z,8.25
2017-03-26T08:52:55.535Z,7.76
2017-03-26T08:53:36.112Z,7.46
2017-03-26T08:54:16.705Z,7.65
2017-03-26T08:54:57.283Z,9.12
2017-03-26T08:55:37.860Z,9.11
2017-03-26T08:56:18.432Z,8.91
2017-03-26T08:56:59.007Z,8.91
2017-03-26T08:57:39.589Z,9.5
2017-03-26T08:58:20.159Z,10.37
2017-03-26T08:59:00.745Z,10.96
2017-03-26T08:59:41.333Z,11.63
2017-03-26T09:00:21.915Z,11.43
2017-03-26T09:01:02.503Z,11.23
2017-03-26T09:01:43.071Z,11.52
2017-03-26T09:02:23.660Z,11.13
2017-03-26T09:03:04.248Z,11.52
2017-03-26T09:03:44.825Z,11.32
2017-03-26T09:04:25.407Z,12.19
2017-03-26T09:05:05.984Z,12.57
2017-03-26T09:05:46.569Z,12.48
2017-03-26T09:06:27.144Z,12.37
2017-03-26T09:07:07.724Z,13.34
2017-03-26T09:07:48.554Z,13.63
2017-03-26T09:08:29.131Z,14.11
2017-03-26T09:09:10.017Z,14.01
2017-03-26T09:09:50.856Z,14.59
2017-03-26T09:10:31.443Z,14.1
2017-03-26T09:11:12.326Z,14.39
2017-03-26T09:11:52.913Z,15.26
2017-03-26T09:12:33.527Z,14.87
2017-03-26T09:13:14.757Z,14.87
2017-03-26T09:13:55.505Z,14.87
2017-03-26T09:14:36.551Z,15.83
2017-03-26T09:15:17.129Z,15.83
2017-03-26T09:15:57.709Z,16.31
2017-03-26T09:16:39.126Z,15.53
2017-03-26T09:17:19.911Z,16.31
2017-03-26T09:18:00.497Z,16.11
2017-03-26T09:18:41.072Z,16.49
2017-03-26T09:19:22.067Z,15.52
2017-03-26T09:20:02.653Z,15.71
2017-03-26T09:20:43.473Z,15.91
2017-03-26T09:21:24.703Z,16.68
2017-03-26T09:22:05.962Z,16.48
2017-03-26T09:22:46.881Z,17.44
2017-03-26T09:23:27.784Z,16.86
2017-03-26T09:24:08.647Z,17.54
2017-03-26T09:24:49.577Z,17.54
2017-03-26T09:25:30.380Z,17.92
2017-03-26T09:26:11.235Z,17.33
2017-03-26T09:26:51.893Z,17.44
2017-03-26T09:27:32.504Z,17.62
2017-03-26T09:28:13.431Z,17.72
2017-03-26T09:28:54.823Z,17.52
2017-03-26T09:29:35.546Z,17.72
2017-03-26T09:30:16.130Z,18.49
2017-03-26T09:30:56.917Z,17.71
2017-03-26T09:31:37.500Z,18.19
2017-03-26T09:32:18.077Z,18.29
2017-03-26T09:32:58.644Z,18.68
2017-03-26T09:33:39.673Z,18.29
2017-03-26T09:34:20.386Z,18.29
2017-03-26T09:35:00.973Z,18.77
2017-03-26T09:35:41.796Z,19.06
2017-03-26T09:36:22.396Z,18.19
2017-03-26T09:37:03.358Z,18.77
2017-03-26T09:37:43.943Z,18.77
2017-03-26T09:38:24.523Z,18.96
2017-03-26T09:39:05.267Z,17.99
2017-03-26T09:39:45.849Z,18.67
2017-03-26T09:40:26.427Z,18.09
2017-03-26T09:41:07.416Z,18.96
2017-03-26T09:41:48.030Z,18.09
2017-03-26T09:42:28.811Z,18.77
2017-03-26T09:43:09.592Z,18.28
2017-03-26T09:43:50.491Z,18.28
2017-03-26T09:44:31.659Z,18.96
2017-03-26T09:45:12.646Z,18.67
2017-03-26T09:45:53.411Z,18.28
2017-03-26T09:46:33.991Z,18.09
2017-03-26T09:47:14.573Z,17.8
2017-03-26T09:47:55.195Z,17.99
2017-03-26T09:48:35.791Z,17.8
2017-03-26T09:49:16.376Z,18.09
2017-03-26T09:49:56.940Z,19.64
2017-03-26T09:50:37.544Z,18.96
2017-03-26T09:51:18.114Z,18.67
2017-03-26T09:51:58.692Z,18.59
2017-03-26T09:52:39.269Z,18.87
2017-03-26T09:53:19.899Z,18.87
2017-03-26T09:54:00.436Z,17.99
2017-03-26T09:54:41.021Z,18.28
2017-03-26T09:55:21.604Z,17.7
2017-03-26T09:56:02.183Z,18.57
2017-03-26T09:56:42.769Z,18.38
2017-03-26T09:57:23.350Z,18.48
2017-03-26T09:58:03.929Z,18.09
2017-03-26T09:58:44.511Z,17.41
2017-03-26T09:59:25.090Z,17.8
2017-03-26T10:00:05.671Z,19.06
2017-03-26T10:00:46.255Z,18.96
2017-03-26T10:01:26.835Z,18.57
2017-03-26T10:02:07.418Z,18.66
2017-03-26T10:02:48.003Z,18.66
2017-03-26T10:03:28.578Z,18.47
2017-03-26T10:04:09.166Z,18.17
2017-03-26T10:04:49.747Z,18.94
2017-03-26T10:05:30.325Z,18.94
2017-03-26T10:06:10.909Z,18.55
2017-03-26T10:06:51.489Z,19.12
2017-03-26T10:07:32.078Z,18.64
2017-03-26T10:08:12.672Z,19.03
2017-03-26T10:08:53.253Z,18.93
2017-03-26T10:09:33.839Z,19.42
2017-03-26T10:10:14.409Z,19.42
2017-03-26T10:10:54.989Z,19.51
2017-03-26T10:11:35.567Z,19.42
2017-03-26T10:12:16.152Z,19.32
2017-03-26T10:12:56.732Z,19.4
2017-03-26T10:13:37.310Z,19.8
2017-03-26T10:14:17.893Z,19.5
2017-03-26T10:14:58.471Z,19.5
2017-03-26T10:15:39.061Z,19.5
2017-03-26T10:16:19.637Z,20.07
2017-03-26T10:17:00.228Z,20.56
2017-03-26T10:17:40.809Z,20.17
2017-03-26T10:18:21.385Z,20.26
2017-03-26T10:19:01.962Z,20.36
2017-03-26T10:19:42.547Z,20.75
2017-03-26T10:20:23.127Z,20.25
2017-03-26T10:21:03.712Z,20.56
2017-03-26T10:21:44.292Z,21.04
2017-03-26T10:22:24.877Z,20.83
2017-03-26T10:23:05.464Z,20.83
2017-03-26T10:23:46.045Z,20.83
2017-03-26T10:24:26.614Z,20.93
2017-03-26T10:25:07.185Z,20.74
2017-03-26T10:25:47.772Z,20.74
2017-03-26T10:26:28.347Z,21.51
2017-03-26T10:27:08.924Z,22.19
2017-03-26T10:27:49.506Z,23.82
2017-03-26T10:28:30.095Z,23.81
2017-03-26T10:29:10.679Z,23.91
2017-03-26T10:29:51.264Z,24.01
2017-03-26T10:30:31.846Z,22.36
2017-03-26T10:31:12.731Z,22.85
2017-03-26T10:31:53.733Z,24.01
2017-03-26T10:32:34.546Z,24.2
2017-03-26T10:33:15.261Z,23.72
2017-03-26T10:33:56.253Z,23.72
2017-03-26T10:34:37.000Z,23.51
2017-03-26T10:35:17.582Z,22.84
2017-03-26T10:35:58.165Z,22.74
2017-03-26T10:36:39.147Z,22.36
2017-03-26T10:37:19.796Z,23.03
2017-03-26T10:38:00.370Z,23.22
2017-03-26T10:38:40.949Z,23.9
2017-03-26T10:39:21.529Z,23.99
2017-03-26T10:40:02.092Z,23.22
2017-03-26T10:40:42.652Z,23.51
2017-03-26T10:41:23.230Z,23.9
2017-03-26T10:42:03.818Z,23.5
2017-03-26T10:42:44.389Z,22.93
2017-03-26T10:43:24.969Z,23.02
2017-03-26T10:44:05.567Z,23.79
2017-03-26T10:44:46.154Z,24.27
2017-03-26T10:45:26.732Z,24.75
2017-03-26T10:46:07.312Z,24.66
2017-03-26T10:46:47.957Z,25.04
2017-03-26T10:47:28.543Z,24.37
2017-03-26T10:48:09.127Z,24.95
2017-03-26T10:48:49.701Z,24.27
2017-03-26T10:49:30.285Z,24.37
2017-03-26T10:50:10.865Z,24.46
2017-03-26T10:50:51.447Z,24.75
2017-03-26T10:51:32.033Z,25.04
2017-03-26T10:52:12.605Z,24.66
2017-03-26T10:52:53.194Z,25.04
2017-03-26T10:53:33.780Z,25.04
2017-03-26T10:54:14.391Z,24.56
2017-03-26T10:54:54.930Z,25.33
2017-03-26T10:55:35.512Z,26.68
2017-03-26T10:56:16.105Z,27.74
2017-03-26T10:56:56.692Z,26.78
2017-03-26T10:57:37.278Z,25.43
2017-03-26T10:58:17.872Z,25.43
2017-03-26T10:58:58.457Z,25.81
2017-03-26T10:59:39.035Z,24.85
2017-03-26T11:00:19.631Z,25.23
2017-03-26T11:01:00.205Z,25.43
2017-03-26T11:01:40.787Z,25.13
2017-03-26T11:02:21.449Z,24.95
2017-03-26T11:03:02.377Z,25.33
2017-03-26T11:03:43.108Z,26.2
2017-03-26T11:04:23.957Z,25.71
2017-03-26T11:05:04.773Z,26
2017-03-26T11:05:45.794Z,25.23
2017-03-26T11:06:26.494Z,24.45
2017-03-26T11:07:07.283Z,24.65
2017-03-26T11:07:47.930Z,24.95
2017-03-26T11:08:28.516Z,24.55
2017-03-26T11:09:09.110Z,25.03
2017-03-26T11:09:49.690Z,25.51
2017-03-26T11:10:30.465Z,24.55
2017-03-26T11:11:11.047Z,24.26
2017-03-26T11:11:51.629Z,23.97
2017-03-26T11:12:32.477Z,25.12
2017-03-26T11:13:13.193Z,24.65
2017-03-26T11:13:53.782Z,24.45
2017-03-26T11:14:34.634Z,24.84
2017-03-26T11:15:15.219Z,24.55
2017-03-26T11:15:55.957Z,25.42
2017-03-26T11:16:36.638Z,25.12
2017-03-26T11:17:17.307Z,25.42
2017-03-26T11:17:58.370Z,24.45
2017-03-26T11:18:39.131Z,24.35
2017-03-26T11:19:19.888Z,24.45
2017-03-26T11:20:00.457Z,24.45
2017-03-26T11:20:41.045Z,25.6
2017-03-26T11:21:21.694Z,24.92
2017-03-26T11:22:02.694Z,25.22
2017-03-26T11:22:43.379Z,24.93
2017-03-26T11:23:24.285Z,24.65
2017-03-26T11:24:05.111Z,24.45
2017-03-26T11:24:45.699Z,24.74
2017-03-26T11:25:26.285Z,24.74
2017-03-26T11:26:06.873Z,25.6
2017-03-26T11:26:47.458Z,25.9
2017-03-26T11:27:28.196Z,26.18
2017-03-26T11:28:08.786Z,26.76
2017-03-26T11:28:49.365Z,26.47
2017-03-26T11:29:29.953Z,26.37
2017-03-26T11:30:10.542Z,26.09
2017-03-26T11:30:51.553Z,25.6
2017-03-26T11:32:49.742Z,25.32
2017-03-26T11:33:30.640Z,25.42
2017-03-26T11:34:11.217Z,24.93
2017-03-26T11:34:51.795Z,24.45
2017-03-26T11:35:32.487Z,25.7
2017-03-26T11:36:13.185Z,25.03
2017-03-26T11:36:54.016Z,25.11
2017-03-26T11:37:34.798Z,24.55
2017-03-26T11:38:15.786Z,25.12
2017-03-26T11:38:56.563Z,25.11
2017-03-26T11:39:37.136Z,25.02
2017-03-26T11:40:18.764Z,25.98
2017-03-26T11:40:59.855Z,25.79
2017-03-26T11:41:40.740Z,25.98
2017-03-26T11:42:21.570Z,25.69
2017-03-26T11:43:02.304Z,25.69
2017-03-26T11:43:42.980Z,25.79
2017-03-26T11:44:24.629Z,25.69
2017-03-26T11:45:05.979Z,25.88
2017-03-26T11:45:46.770Z,25.69
2017-03-26T11:46:27.921Z,25.59
2017-03-26T11:47:08.890Z,26.36
2017-03-26T11:47:49.472Z,26.07
2017-03-26T11:48:30.130Z,26.17
2017-03-26T11:49:10.704Z,26.46
2017-03-26T11:49:51.274Z,26.46
2017-03-26T11:50:32.058Z,25.98
2017-03-26T11:51:12.633Z,25.88
2017-03-26T11:51:53.677Z,25.98
2017-03-26T11:52:34.377Z,25.59
2017-03-26T11:53:14.942Z,25.21
2017-03-26T11:53:55.709Z,25.49
2017-03-26T11:54:36.505Z,25.49
2017-03-26T11:55:17.282Z,25.88
2017-03-26T11:55:57.859Z,25.98
2017-03-26T11:56:38.779Z,25.59
2017-03-26T11:57:19.354Z,25.49
2017-03-26T11:58:00.194Z,25.49
2017-03-26T11:58:40.931Z,25.59
2017-03-26T11:59:21.872Z,26.65
2017-03-26T12:00:02.699Z,27.13
2017-03-26T12:00:43.273Z,26.84
2017-03-26T12:01:23.855Z,26.94
2017-03-26T12:02:04.439Z,26.56
2017-03-26T12:02:45.077Z,26.75
2017-03-26T12:03:25.781Z,26.36
2017-03-26T12:04:06.365Z,26.46
2017-03-26T12:04:46.945Z,26.65
2017-03-26T12:05:27.525Z,26.84
2017-03-26T12:06:08.103Z,26.07
2017-03-26T12:06:48.758Z,26.27
2017-03-26T12:07:29.320Z,26.27
2017-03-26T12:08:09.891Z,26.17
2017-03-26T12:08:50.468Z,25.31
2017-03-26T12:09:31.185Z,26.65
2017-03-26T12:10:11.763Z,27.04
2017-03-26T12:10:52.343Z,26.27
2017-03-26T12:11:32.925Z,25.98
2017-03-26T12:12:13.719Z,25.31
2017-03-26T12:12:54.545Z,26.56
2017-03-26T12:13:35.583Z,26.27
2017-03-26T12:14:16.479Z,26.07
2017-03-26T12:14:57.567Z,25.02
2017-03-26T12:15:38.141Z,25.4
2017-03-26T12:16:18.828Z,25.88
2017-03-26T12:16:59.412Z,25.98
2017-03-26T12:17:40.407Z,26.27
2017-03-26T12:18:21.418Z,26.65
2017-03-26T12:19:02.006Z,26.36
2017-03-26T12:19:42.591Z,25.59
2017-03-26T12:20:23.415Z,26.56
2017-03-26T12:21:04.203Z,26.46
2017-03-26T12:21:44.827Z,25.98
2017-03-26T12:22:25.544Z,25.69
2017-03-26T12:23:06.123Z,25.4
2017-03-26T12:23:46.904Z,26.27
2017-03-26T12:24:27.571Z,25.88
2017-03-26T12:25:08.238Z,25.96
2017-03-26T12:25:48.824Z,25.98
2017-03-26T12:26:29.406Z,26.36
2017-03-26T12:27:10.171Z,26.56
2017-03-26T12:27:50.792Z,26.65
2017-03-26T12:28:31.515Z,26.36
2017-03-26T12:29:12.104Z,27.04
2017-03-26T12:29:52.686Z,27.23
2017-03-26T12:30:33.426Z,26.94
2017-03-26T12:31:14.189Z,26.75
2017-03-26T12:31:54.809Z,26.56
2017-03-26T12:32:35.487Z,26.56
2017-03-26T12:33:16.073Z,26.07
2017-03-26T12:33:56.653Z,26.17
2017-03-26T12:34:37.291Z,26.07
2017-03-26T12:35:17.997Z,25.79
2017-03-26T12:35:58.745Z,26.56
2017-03-26T12:36:39.319Z,26.75
2017-03-26T12:37:19.887Z,26.75
2017-03-26T12:38:00.469Z,26.17
2017-03-26T12:38:41.052Z,25.88
2017-03-26T12:39:21.767Z,26.56
2017-03-26T12:40:02.493Z,26.56
2017-03-26T12:40:43.242Z,26.46
2017-03-26T12:41:24.130Z,26.36
2017-03-26T12:42:04.722Z,26.46
2017-03-26T12:42:45.287Z,26.27
2017-03-26T12:43:25.859Z,26.75
2017-03-26T12:44:06.433Z,26.65
2017-03-26T12:44:47.015Z,26.17
2017-03-26T12:45:27.619Z,26.56
2017-03-26T12:46:08.198Z,26.46
2017-03-26T12:46:48.777Z,26.27
2017-03-26T12:47:29.380Z,26.36
2017-03-26T12:48:09.958Z,26.65
2017-03-26T12:48:50.528Z,25.59
2017-03-26T12:49:31.115Z,25.98
2017-03-26T12:50:11.742Z,25.69
2017-03-26T12:50:52.268Z,26.27
2017-03-26T12:51:32.855Z,26.07
2017-03-26T12:52:13.435Z,26.75
2017-03-26T12:52:54.018Z,26.46
2017-03-26T12:53:34.605Z,25.4
2017-03-26T12:54:15.185Z,25.59
2017-03-26T12:54:55.767Z,25.59
2017-03-26T12:55:36.337Z,25.11
2017-03-26T12:56:16.914Z,25.69
2017-03-26T12:56:57.496Z,25.98
2017-03-26T12:57:38.063Z,26.46
2017-03-26T12:58:18.640Z,26.17
2017-03-26T12:58:59.223Z,25.79
2017-03-26T12:59:39.815Z,26.07
2017-03-26T13:00:20.393Z,26.07
2017-03-26T13:01:00.965Z,25.88
2017-03-26T13:01:41.543Z,26.17
2017-03-26T13:02:22.122Z,25.98
2017-03-26T13:03:02.698Z,25.88
2017-03-26T13:03:43.284Z,26.17
2017-03-26T13:04:23.861Z,25.59
2017-03-26T13:05:04.443Z,25.79
2017-03-26T13:05:45.019Z,26.17
2017-03-26T13:06:25.601Z,25.58
2017-03-26T13:07:06.182Z,25.48
2017-03-26T13:07:46.759Z,25.4
2017-03-26T13:08:27.343Z,25.39
2017-03-26T13:09:07.926Z,25.96
2017-03-26T13:09:48.504Z,26.46
2017-03-26T13:10:29.084Z,25.68
2017-03-26T13:11:09.668Z,25.69
2017-03-26T13:11:50.235Z,26.27
2017-03-26T13:12:30.814Z,26.65
2017-03-26T13:13:11.394Z,25.87
2017-03-26T13:13:51.973Z,25.96
2017-03-26T13:14:32.541Z,25.96
2017-03-26T13:15:13.117Z,25.49
2017-03-26T13:15:53.715Z,25.87
2017-03-26T13:16:34.290Z,25.39
2017-03-26T13:17:14.872Z,25.87
2017-03-26T13:17:55.455Z,25.68
2017-03-26T13:18:36.044Z,25.87
2017-03-26T13:19:16.617Z,25.48
2017-03-26T13:19:57.193Z,26.06
2017-03-26T13:20:37.771Z,26.06
2017-03-26T13:21:18.346Z,25.87
2017-03-26T13:21:58.920Z,25.68
2017-03-26T13:22:39.489Z,25.78
2017-03-26T13:23:20.616Z,25.87
2017-03-26T13:24:01.187Z,26.16
2017-03-26T13:24:41.787Z,25.96
2017-03-26T13:25:22.369Z,25.87
2017-03-26T13:26:02.949Z,26.06
2017-03-26T13:26:43.504Z,25.96
2017-03-26T13:27:24.095Z,26.16
2017-03-26T13:28:04.674Z,25.87
2017-03-26T13:28:45.254Z,25.87
2017-03-26T13:29:25.836Z,25.69
2017-03-26T13:30:06.418Z,26.84
2017-03-26T13:30:46.991Z,26.94
2017-03-26T13:31:27.571Z,26.46
2017-03-26T13:32:08.150Z,26.16
2017-03-26T13:32:48.734Z,25.87
2017-03-26T13:33:29.308Z,25.39
2017-03-26T13:34:09.892Z,25.39
2017-03-26T13:34:50.474Z,25.87
2017-03-26T13:35:31.061Z,25.48
2017-03-26T13:36:11.633Z,25.29
2017-03-26T13:36:52.220Z,25.01
2017-03-26T13:37:32.799Z,25.58
2017-03-26T13:38:13.383Z,24.91
2017-03-26T13:38:53.965Z,25.57
2017-03-26T13:39:34.543Z,25.18
2017-03-26T13:40:15.125Z,24.61
2017-03-26T13:40:55.695Z,24.51
2017-03-26T13:41:36.275Z,24.7
2017-03-26T13:42:16.857Z,25.28
2017-03-26T13:42:57.436Z,24.22
2017-03-26T13:43:38.038Z,24.7
2017-03-26T13:44:18.616Z,24.61
2017-03-26T13:44:59.186Z,25.09
2017-03-26T13:45:39.748Z,24.9
2017-03-26T13:46:20.333Z,25.95
2017-03-26T13:47:00.915Z,25.67
2017-03-26T13:47:41.498Z,24.8
2017-03-26T13:48:22.079Z,25.09
2017-03-26T13:49:02.653Z,24.9
2017-03-26T13:49:43.233Z,25.28
2017-03-26T13:50:23.815Z,24.41
2017-03-26T13:51:04.389Z,23.84
2017-03-26T13:51:44.984Z,24.32
2017-03-26T13:52:25.548Z,24.51
2017-03-26T13:53:06.138Z,23.84
2017-03-26T13:53:46.718Z,24.41
2017-03-26T13:54:27.343Z,23.93
2017-03-26T13:55:07.874Z,24.61
2017-03-26T13:55:48.458Z,24.41
2017-03-26T13:56:29.030Z,24.22
2017-03-26T13:57:09.608Z,23.74
2017-03-26T13:57:50.184Z,23.16
2017-03-26T13:58:30.769Z,23.46
2017-03-26T13:59:11.350Z,24.8
2017-03-26T13:59:51.926Z,24.41
2017-03-26T14:00:32.511Z,24.32
2017-03-26T14:01:13.076Z,24.13
2017-03-26T14:01:53.666Z,24.13
2017-03-26T14:02:34.252Z,24.22
2017-03-26T14:03:14.829Z,23.93
2017-03-26T14:03:55.410Z,23.65
2017-03-26T17:36:55.772Z,31.33
2017-03-26T17:37:36.329Z,31.62
2017-03-26T17:38:16.925Z,31.72
2017-03-26T17:38:57.452Z,31.91
2017-03-26T17:39:38.037Z,31.72
2017-03-26T17:40:18.594Z,31.81
2017-03-26T17:40:59.141Z,32.2
2017-03-26T17:41:39.703Z,32.39
2017-03-26T17:42:20.252Z,32.59
2017-03-26T17:43:00.816Z,33.26
2017-03-26T17:43:41.395Z,33.17
2017-03-26T17:44:21.967Z,33.45
2017-03-26T17:45:02.545Z,33.36
2017-03-26T17:45:43.107Z,33.53
2017-03-26T17:46:23.681Z,33.34
2017-03-26T17:47:04.249Z,33.53
2017-03-26T17:47:44.836Z,33.63
2017-03-26T17:48:25.386Z,33.63
2017-03-26T17:49:05.962Z,33.84
2017-03-26T17:49:46.574Z,33.82
2017-03-26T17:50:27.134Z,34.21
2017-03-26T17:51:07.701Z,34.42
2017-03-26T17:51:48.283Z,34.21
2017-03-26T17:52:28.866Z,34.3
2017-03-26T17:53:09.461Z,34.4
2017-03-26T17:53:50.034Z,34.4
2017-03-26T17:54:30.615Z,34.69
2017-03-26T17:55:11.191Z,34.59
2017-03-26T17:55:51.765Z,35.17
2017-03-26T17:56:32.364Z,35.46
2017-03-26T17:57:12.932Z,35.56
2017-03-26T17:57:53.512Z,35.17
2017-03-26T17:58:34.099Z,35.85
2017-03-26T17:59:14.676Z,35.65
2017-03-26T17:59:55.229Z,35.75
2017-03-26T18:00:35.811Z,35.65
2017-03-26T18:01:16.388Z,35.94
2017-03-26T18:01:56.959Z,36.04
2017-03-26T18:02:37.546Z,35.85
2017-03-26T18:03:18.122Z,35.94
2017-03-26T18:03:58.704Z,36.04
2017-03-26T18:04:39.304Z,36.13
2017-03-26T18:05:19.880Z,36.33